Time;durP1;ratioP1;P1;durP2;ratioP2;P2;SDS_P1;SDS_P2;PMS_P1;PMS_P2;Temp;Humidity;BMP_temperature;BMP_pressure;BME280_temperature;BME280_humidity;BME280_pressure;Samples;Min_cycle;Max_cycle;Signal;HPM_P1;HPM_P2
2023/03/01 00:00:46;;;;;;;1.55;0.50;;;;;;;-4.20;58.05;98675.69;5067118;28;20476;-34
2023/03/01 00:03:13;;;;;;;4.32;1.55;;;;;;;-4.22;57.83;98674.81;5065955;28;20055;-35
2023/03/01 00:05:48;;;;;;;0.95;0.35;;;;;;;-4.24;58.33;98678.19;5054388;28;20448;-35
2023/03/01 00:08:14;;;;;;;4.25;0.82;;;;;;;-4.26;58.46;98668.03;5064582;28;20045;-35
2023/03/01 00:10:40;;;;;;;4.88;0.65;;;;;;;-4.28;58.39;98673.06;5067622;28;20102;-34
2023/03/01 00:13:06;;;;;;;1.17;0.63;;;;;;;-4.31;58.49;98662.06;5067314;28;20044;-34
2023/03/01 00:15:32;;;;;;;0.50;0.25;;;;;;;-4.32;57.75;98663.75;5068176;28;20044;-34
2023/03/01 00:17:57;;;;;;;3.25;0.50;;;;;;;-4.67;58.45;98605.97;5071597;28;20055;-35
2023/03/01 00:20:23;;;;;;;2.28;0.63;;;;;;;-4.33;57.81;98671.34;5073660;28;20032;-34
2023/03/01 00:22:49;;;;;;;5.05;0.40;;;;;;;-4.38;58.70;98658.63;5071187;28;20138;-33
2023/03/01 00:25:16;;;;;;;2.70;0.40;;;;;;;-4.79;58.21;98597.41;5070033;28;20554;-33
2023/03/01 00:27:42;;;;;;;1.55;0.22;;;;;;;-4.43;58.21;98649.28;5063635;28;20048;-33
2023/03/01 00:30:08;;;;;;;2.17;0.38;;;;;;;-4.45;58.21;98653.50;5073640;28;20094;-35
2023/03/01 00:32:34;;;;;;;1.98;0.60;;;;;;;-4.46;57.97;98660.25;5073200;28;20040;-34
2023/03/01 00:35:00;;;;;;;1.45;0.50;;;;;;;-4.47;58.42;98665.31;5074893;28;20452;-34
2023/03/01 00:37:26;;;;;;;1.48;0.30;;;;;;;-4.48;57.99;98659.38;5073505;28;20047;-35
2023/03/01 00:39:52;;;;;;;2.55;1.23;;;;;;;-4.52;58.14;98656.81;5069516;28;20147;-42
2023/03/01 00:42:18;;;;;;;0.68;0.22;;;;;;;-4.50;58.43;98660.22;5071697;28;20151;-35
2023/03/01 00:44:44;;;;;;;0.85;0.45;;;;;;;-4.83;58.31;98604.97;5073134;28;20591;-35
2023/03/01 00:47:09;;;;;;;1.92;0.43;;;;;;;-4.50;58.12;98658.50;5072709;28;20044;-34
2023/03/01 00:49:35;;;;;;;0.50;0.28;;;;;;;-4.73;57.69;98617.75;5074628;28;20089;-35
2023/03/01 00:52:01;;;;;;;2.38;0.32;;;;;;;-4.54;57.84;98651.72;5076797;28;20043;-35
2023/03/01 00:54:27;;;;;;;1.27;0.30;;;;;;;-4.57;57.60;98654.25;5081167;28;20055;-34
2023/03/01 00:56:53;;;;;;;3.65;0.40;;;;;;;-4.61;58.41;98649.97;5073436;28;20040;-34
2023/03/01 00:59:19;;;;;;;0.30;0.30;;;;;;;-4.59;58.09;98658.44;5073038;28;20393;-34
2023/03/01 01:01:45;;;;;;;1.15;0.40;;;;;;;-4.79;58.36;98620.22;5068846;28;20095;-34
2023/03/01 01:04:13;;;;;;;0.38;0.25;;;;;;;-4.61;57.72;98652.53;5064778;28;20068;-34
2023/03/01 01:06:44;;;;;;;0.98;0.50;;;;;;;-4.64;58.21;98651.63;5070161;28;20158;-34
2023/03/01 01:09:16;;;;;;;0.85;0.40;;;;;;;-4.65;58.00;98652.44;5066596;28;20068;-35
2023/03/01 01:11:47;;;;;;;2.53;0.68;;;;;;;-4.66;58.53;98643.16;5074554;28;20098;-34
2023/03/01 01:14:14;;;;;;;2.08;0.50;;;;;;;-4.70;58.72;98644.81;5055902;28;20629;-35
2023/03/01 01:16:40;;;;;;;1.23;0.35;;;;;;;-4.72;58.53;98641.44;5073305;28;20040;-35
2023/03/01 01:19:06;;;;;;;1.10;0.47;;;;;;;-4.75;58.86;98641.38;5071093;28;20044;-35
2023/03/01 01:21:32;;;;;;;1.48;0.20;;;;;;;-4.77;58.58;98643.91;5072326;28;20045;-34
2023/03/01 01:23:58;;;;;;;4.55;0.65;;;;;;;-4.76;58.77;98649.81;5071999;28;20123;-33
2023/03/01 01:26:30;;;;;;;4.47;0.40;;;;;;;-4.78;59.03;98654.88;5073045;28;20132;-34
2023/03/01 01:28:56;;;;;;;0.90;0.50;;;;;;;-4.77;59.02;98645.59;5053265;28;20040;-34
2023/03/01 01:31:24;;;;;;;3.03;0.93;;;;;;;-4.78;58.72;98649.81;5071216;28;20047;-34
2023/03/01 01:33:51;;;;;;;1.23;0.22;;;;;;;-4.77;58.98;98658.28;5051826;28;20037;-34
2023/03/01 01:36:17;;;;;;;1.23;0.40;;;;;;;-4.76;59.24;98657.41;5052437;28;20047;-34
2023/03/01 01:38:43;;;;;;;1.33;0.30;;;;;;;-4.77;59.04;98655.75;5053931;28;20036;-36
2023/03/01 01:41:14;;;;;;;2.72;0.40;;;;;;;-4.76;59.06;98660.81;5065932;28;20162;-35
2023/03/01 01:43:45;;;;;;;0.73;0.20;;;;;;;-4.77;59.76;98661.66;5068702;28;20041;-34
2023/03/01 01:46:31;;;;;;;0.50;0.20;;;;;;;-4.68;59.45;98662.56;5069160;28;20052;-34
2023/03/01 01:49:00;;;;;;;0.43;0.30;;;;;;;-4.56;59.08;98666.09;5069008;28;20458;-34
2023/03/01 01:51:37;;;;;;;1.65;0.60;;;;;;;-4.43;59.12;98652.66;5069293;28;20048;-36
2023/03/01 01:54:22;;;;;;;1.02;0.30;;;;;;;-4.36;59.08;98659.50;5051588;28;20062;-35
2023/03/01 01:56:56;;;;;;;0.82;0.35;;;;;;;-4.29;58.67;98650.22;5068159;28;20044;-35
2023/03/01 01:59:24;;;;;;;3.13;0.70;;;;;;;-4.44;58.99;98627.28;5067422;28;20071;-35
2023/03/01 02:01:51;;;;;;;2.95;0.40;;;;;;;-4.27;58.50;98651.94;5053047;28;20079;-34
2023/03/01 02:04:18;;;;;;;0.63;0.22;;;;;;;-4.63;58.84;98610.22;5065979;28;20044;-33
2023/03/01 02:06:58;;;;;;;5.97;0.50;;;;;;;-4.46;59.16;98655.19;5067239;28;20072;-35
2023/03/01 02:09:24;;;;;;;0.93;0.20;;;;;;;-4.53;59.10;98655.09;5048475;28;20086;-35
2023/03/01 02:11:51;;;;;;;2.30;0.35;;;;;;;-4.59;58.99;98665.19;5049521;28;20459;-34
2023/03/01 02:14:17;;;;;;;1.63;0.50;;;;;;;-4.63;59.47;98663.47;5042982;28;20408;-35
2023/03/01 02:16:43;;;;;;;2.58;0.40;;;;;;;-4.69;59.43;98656.66;5068614;28;20208;-34
2023/03/01 02:19:17;;;;;;;2.58;0.52;;;;;;;-4.97;60.10;98625.09;5067134;28;20045;-34
2023/03/01 02:22:17;;;;;;;1.15;0.20;;;;;;;-4.75;60.21;98662.50;5069359;28;20044;-35
2023/03/01 02:25:08;;;;;;;1.42;0.38;;;;;;;-4.78;60.13;98657.41;5066710;28;20178;-33
2023/03/01 02:27:41;;;;;;;1.95;0.20;;;;;;;-4.82;59.62;98660.78;5051478;28;20040;-34
2023/03/01 02:30:07;;;;;;;0.55;0.10;;;;;;;-4.83;60.22;98670.88;5069950;28;20033;-34
2023/03/01 02:32:35;;;;;;;1.65;0.20;;;;;;;-4.87;60.07;98662.41;5067865;28;20116;-34
2023/03/01 02:35:01;;;;;;;0.90;0.40;;;;;;;-5.08;60.34;98638.53;5084637;28;20036;-33
2023/03/01 02:37:29;;;;;;;5.30;1.73;;;;;;;-4.92;60.39;98669.09;5067611;28;20127;-33
2023/03/01 02:39:59;;;;;;;1.25;0.50;;;;;;;-4.95;60.76;98668.22;5064391;28;20143;-34
2023/03/01 02:42:35;;;;;;;1.13;0.35;;;;;;;-4.96;60.77;98669.88;5068688;28;20059;-34
2023/03/01 02:45:01;;;;;;;2.13;0.57;;;;;;;-5.06;60.65;98665.56;5048305;28;20048;-35
2023/03/01 02:47:30;;;;;;;2.83;0.55;;;;;;;-4.98;60.93;98675.78;5065432;28;20089;-35
2023/03/01 02:49:56;;;;;;;5.00;0.70;;;;;;;-5.13;60.55;98662.09;5082190;28;20048;-33
2023/03/01 02:52:43;;;;;;;1.40;0.70;;;;;;;-5.04;60.71;98675.72;5068614;28;20044;-34
2023/03/01 02:55:11;;;;;;;0.40;0.30;;;;;;;-5.08;61.17;98672.31;5065971;28;20590;-35
2023/03/01 02:57:40;;;;;;;0.98;0.50;;;;;;;-5.07;61.24;98670.59;5066529;28;20040;-35
2023/03/01 03:00:18;;;;;;;1.05;0.47;;;;;;;-5.09;61.44;98675.66;5051648;28;20045;-35
2023/03/01 03:02:46;;;;;;;2.58;0.38;;;;;;;-5.13;60.97;98673.94;5068629;28;20040;-34
2023/03/01 03:05:31;;;;;;;2.80;0.38;;;;;;;-5.16;61.78;98677.28;5084888;28;20131;-34
2023/03/01 03:08:00;;;;;;;5.00;0.80;;;;;;;-5.16;61.63;98677.28;5067238;28;20048;-34
2023/03/01 03:10:29;;;;;;;1.90;0.67;;;;;;;-5.16;62.01;98676.44;5068742;28;20052;-35
2023/03/01 03:12:57;;;;;;;1.60;0.55;;;;;;;-5.17;61.54;98687.38;5068064;28;20135;-34
2023/03/01 03:15:25;;;;;;;2.75;0.45;;;;;;;-5.20;61.76;98677.22;5050433;28;20040;-34
2023/03/01 03:17:51;;;;;;;0.40;0.30;;;;;;;-5.39;62.01;98657.59;5049174;28;20040;-35
2023/03/01 03:20:19;;;;;;;3.45;0.50;;;;;;;-5.22;62.06;98689.00;5067593;28;20071;-34
2023/03/01 03:22:47;;;;;;;1.15;0.50;;;;;;;-5.23;62.05;98685.63;5068161;28;20492;-35
2023/03/01 03:25:13;;;;;;;0.60;0.28;;;;;;;-5.23;62.30;98684.78;5064482;28;20078;-33
2023/03/01 03:27:41;;;;;;;2.00;0.30;;;;;;;-5.24;62.13;98688.16;5067046;28;20119;-34
2023/03/01 03:30:12;;;;;;;3.30;0.85;;;;;;;-5.43;62.07;98659.22;5067118;28;20041;-34
2023/03/01 03:32:42;;;;;;;4.57;1.45;;;;;;;-5.23;62.14;98685.63;5067095;28;20131;-34
2023/03/01 03:35:09;;;;;;;1.90;0.70;;;;;;;-5.22;62.22;98691.53;5050885;28;20067;-34
2023/03/01 03:40:44;;;;;;;0.57;0.28;;;;;;;-5.29;62.25;98689.78;5058977;28;20484;-34
2023/03/01 03:43:13;;;;;;;1.42;0.60;;;;;;;-5.33;62.39;98691.41;5067754;28;20270;-34
2023/03/01 03:45:39;;;;;;;0.85;0.47;;;;;;;-5.31;63.00;98687.22;5065739;28;20086;-34
2023/03/01 03:48:08;;;;;;;0.90;0.45;;;;;;;-5.33;62.67;98688.88;5068860;28;20462;-35
2023/03/01 03:50:34;;;;;;;3.42;0.70;;;;;;;-5.39;62.47;98685.44;5067696;28;20523;-35
2023/03/01 03:53:01;;;;;;;2.92;0.80;;;;;;;-5.38;62.34;98682.91;5066889;28;20044;-37
2023/03/01 03:55:30;;;;;;;3.60;0.80;;;;;;;-5.36;62.93;98685.47;5067786;28;20036;-37
2023/03/01 03:58:06;;;;;;;1.38;0.52;;;;;;;-5.35;62.48;98689.72;5068087;28;20055;-35
2023/03/01 04:00:37;;;;;;;1.08;0.45;;;;;;;-5.35;62.74;98688.03;5067532;28;20047;-35
2023/03/01 04:03:03;;;;;;;1.38;0.63;;;;;;;-5.33;62.88;98693.94;5084590;28;20051;-33
2023/03/01 04:05:29;;;;;;;0.90;0.50;;;;;;;-5.33;62.86;98691.41;5068462;28;20432;-35
2023/03/01 04:08:02;;;;;;;0.85;0.32;;;;;;;-5.39;62.71;98688.81;5067697;28;20050;-35
2023/03/01 04:10:33;;;;;;;3.50;0.60;;;;;;;-5.30;62.92;98700.75;5068181;28;20166;-34
2023/03/01 04:12:59;;;;;;;2.08;0.65;;;;;;;-5.30;63.33;98700.75;5067158;28;20512;-35
2023/03/01 04:15:26;;;;;;;2.15;0.43;;;;;;;-5.27;63.30;98704.16;5067064;28;20123;-35
2023/03/01 04:17:53;;;;;;;4.47;0.98;;;;;;;-5.25;63.10;98702.50;5067168;28;20106;-35
2023/03/01 04:20:25;;;;;;;2.92;0.68;;;;;;;-5.22;62.80;98706.75;5064503;28;20547;-36
2023/03/01 04:23:15;;;;;;;2.83;0.68;;;;;;;-5.22;62.99;98702.53;5061054;28;20056;-34
2023/03/01 04:25:53;;;;;;;1.25;0.55;;;;;;;-5.19;63.31;98702.59;5079597;28;20032;-34
2023/03/01 04:28:42;;;;;;;2.88;0.70;;;;;;;-5.20;63.17;98698.34;5062117;28;20040;-34
2023/03/01 04:31:15;;;;;;;3.35;1.02;;;;;;;-5.36;62.84;98681.25;5065532;28;20036;-35
2023/03/01 04:33:51;;;;;;;2.72;0.65;;;;;;;-5.18;63.56;98699.19;5065890;28;20044;-34
2023/03/01 04:36:18;;;;;;;1.80;0.52;;;;;;;-5.31;63.19;98676.25;5064237;28;20037;-34
2023/03/01 04:38:47;;;;;;;1.20;0.57;;;;;;;-5.11;63.01;98700.13;5049167;28;20668;-34
2023/03/01 04:41:15;;;;;;;1.45;0.30;;;;;;;-5.32;63.11;98667.78;5064320;28;20036;-35
2023/03/01 04:43:41;;;;;;;2.65;0.63;;;;;;;-5.18;62.89;98689.06;5047064;28;20127;-36
2023/03/01 04:46:10;;;;;;;0.73;0.43;;;;;;;-5.18;63.03;98686.53;5066218;28;20139;-35
2023/03/01 04:48:40;;;;;;;1.90;0.77;;;;;;;-4.97;63.67;98716.34;5066089;28;20701;-35
2023/03/01 04:51:07;;;;;;;1.10;0.60;;;;;;;-4.90;63.24;98712.19;5094036;28;20072;-34
2023/03/01 04:53:36;;;;;;;1.35;0.55;;;;;;;-4.87;63.00;98717.31;5065568;28;20036;-35
2023/03/01 04:56:02;;;;;;;2.00;0.73;;;;;;;-4.86;62.53;98716.47;5066727;28;20455;-33
2023/03/01 04:58:28;;;;;;;4.78;0.82;;;;;;;-4.85;62.62;98715.63;5065092;28;20392;-36
2023/03/01 05:00:55;;;;;;;2.58;0.50;;;;;;;-4.89;62.84;98712.22;5066394;28;20404;-35
2023/03/01 05:03:21;;;;;;;2.60;0.70;;;;;;;-5.03;62.66;98680.81;5068852;28;20040;-33
2023/03/01 05:05:49;;;;;;;4.40;0.85;;;;;;;-4.79;62.60;98714.03;5069919;28;20167;-34
2023/03/01 05:08:18;;;;;;;4.78;0.90;;;;;;;-4.69;62.85;98725.09;5065995;28;20147;-34
2023/03/01 05:10:54;;;;;;;2.25;1.25;;;;;;;-4.54;62.62;98726.94;5053551;28;20397;-33
2023/03/01 05:13:21;;;;;;;3.53;0.98;;;;;;;-4.40;62.73;98723.72;5069298;28;20040;-34
2023/03/01 05:15:58;;;;;;;1.60;0.60;;;;;;;-4.22;62.57;98728.09;5069388;28;20113;-34
2023/03/01 05:18:25;;;;;;;2.78;0.90;;;;;;;-4.22;61.91;98707.81;5070263;28;20044;-35
2023/03/01 05:20:55;;;;;;;4.93;1.02;;;;;;;-3.92;62.05;98733.41;5068489;28;20385;-35
2023/03/01 05:23:23;;;;;;;2.17;0.77;;;;;;;-3.93;62.06;98710.59;5069372;28;20040;-36
2023/03/01 05:25:52;;;;;;;2.40;1.05;;;;;;;-3.66;61.49;98733.59;5070859;28;20064;-34
2023/03/01 05:28:19;;;;;;;3.67;1.00;;;;;;;-3.52;61.44;98737.09;5070043;28;20626;-34
2023/03/01 05:30:45;;;;;;;5.22;1.10;;;;;;;-3.71;60.42;98707.34;5066201;28;20040;-36
2023/03/01 05:33:14;;;;;;;3.72;0.57;;;;;;;-3.45;60.84;98743.06;5068519;28;20093;-36
2023/03/01 05:35:42;;;;;;;3.60;1.00;;;;;;;-3.36;60.33;98737.19;5070378;28;20068;-37
2023/03/01 05:38:09;;;;;;;2.05;0.63;;;;;;;-3.36;60.78;98743.13;5066014;28;20299;-36
2023/03/01 05:40:35;;;;;;;2.92;0.70;;;;;;;-3.30;60.12;98755.88;5069654;28;20518;-35
2023/03/01 05:43:04;;;;;;;4.95;0.80;;;;;;;-3.20;60.08;98749.16;5039633;28;20048;-35
2023/03/01 05:45:32;;;;;;;6.30;1.52;;;;;;;-3.06;59.80;98740.75;5066058;28;20723;-36
2023/03/01 05:47:58;;;;;;;2.05;0.95;;;;;;;-2.89;59.85;98756.06;5049034;28;20033;-35
2023/03/01 05:50:29;;;;;;;3.22;1.00;;;;;;;-2.83;59.73;98750.16;5066129;28;20048;-36
2023/03/01 05:53:04;;;;;;;3.42;1.10;;;;;;;-2.74;59.36;98761.22;5063401;28;20880;-34
2023/03/01 05:55:30;;;;;;;9.85;1.65;;;;;;;-2.96;58.98;98705.19;5068902;28;20040;-35
2023/03/01 05:58:01;;;;;;;2.92;0.93;;;;;;;-2.61;58.77;98760.41;5068693;28;20047;-37
2023/03/01 06:00:28;;;;;;;3.75;1.10;;;;;;;-2.49;58.59;98768.91;5070501;28;20051;-35
2023/03/01 06:02:55;;;;;;;3.67;0.75;;;;;;;-2.39;58.78;98768.09;5069186;28;20496;-34
2023/03/01 06:05:22;;;;;;;2.30;0.60;;;;;;;-2.40;58.54;98772.31;5067237;28;20190;-36
2023/03/01 06:07:49;;;;;;;2.75;1.00;;;;;;;-2.39;58.58;98779.13;5067767;28;20032;-35
2023/03/01 06:10:18;;;;;;;3.88;0.90;;;;;;;-2.34;58.34;98779.13;5068799;28;20438;-36
2023/03/01 06:12:44;;;;;;;2.47;1.00;;;;;;;-2.43;58.54;98767.25;5019889;28;20052;-36
2023/03/01 06:15:15;;;;;;;2.47;0.88;;;;;;;-2.27;58.08;98778.31;5063090;28;20530;-36
2023/03/01 06:17:44;;;;;;;5.47;2.08;;;;;;;-2.23;57.85;98752.00;5068133;28;20137;-34
2023/03/01 06:20:15;;;;;;;5.60;1.33;;;;;;;-1.80;57.23;98783.47;5066543;28;20549;-34
2023/03/01 06:22:41;;;;;;;2.88;0.93;;;;;;;-1.62;56.87;98769.88;5101117;27;20048;-36
2023/03/01 06:25:08;;;;;;;2.55;0.80;;;;;;;-1.40;56.62;98776.63;5067535;28;20539;-35
2023/03/01 06:27:34;;;;;;;2.38;0.77;;;;;;;-1.38;56.28;98755.41;5066915;28;20557;-35
2023/03/01 06:30:01;;;;;;;2.47;1.00;;;;;;;-1.04;55.82;98783.34;5066074;28;20567;-36
2023/03/01 06:32:30;;;;;;;4.07;2.13;;;;;;;-1.10;55.32;98745.97;5086609;28;20044;-35
2023/03/01 06:34:58;;;;;;;3.15;1.20;;;;;;;-0.88;55.42;98754.41;5058906;28;20631;-36
2023/03/01 06:37:25;;;;;;;2.67;0.68;;;;;;;-0.57;54.87;98785.75;5094412;28;20075;-36
2023/03/01 06:39:51;;;;;;;2.53;0.80;;;;;;;-0.35;54.79;98786.50;5066111;28;20042;-35
2023/03/01 06:42:17;;;;;;;3.45;0.93;;;;;;;-0.25;54.61;98794.09;5068841;28;20139;-36
2023/03/01 06:44:44;;;;;;;4.68;1.17;;;;;;;0.08;54.02;98787.94;5068153;28;20579;-36
2023/03/01 06:47:10;;;;;;;4.57;1.27;;;;;;;0.36;53.39;98765.59;5069677;28;20139;-35
2023/03/01 06:49:36;;;;;;;3.95;1.10;;;;;;;0.67;52.55;98789.16;5068697;28;20127;-36
2023/03/01 06:52:01;;;;;;;4.70;1.80;;;;;;;1.16;52.11;98786.94;5068238;28;20047;-34
2023/03/01 06:54:28;;;;;;;4.18;1.00;;;;;;;2.01;51.26;98796.09;5079369;28;20508;-34
2023/03/01 06:56:53;;;;;;;2.78;1.00;;;;;;;2.67;49.76;98786.50;5069399;28;20072;-35
2023/03/01 06:59:20;;;;;;;4.35;1.00;;;;;;;2.79;49.12;98790.56;5069425;28;20055;-35
2023/03/01 07:01:45;;;;;;;3.67;1.00;;;;;;;3.37;48.34;98777.50;5067774;28;20136;-36
2023/03/01 07:04:13;;;;;;;3.92;1.17;;;;;;;3.93;47.50;98791.72;5068144;28;20559;-35
2023/03/01 07:06:39;;;;;;;2.38;0.60;;;;;;;3.84;47.51;98794.50;5067662;28;20032;-36
2023/03/01 07:09:04;;;;;;;4.40;1.05;;;;;;;3.98;46.98;98797.59;5050678;28;20647;-35
2023/03/01 07:11:31;;;;;;;7.65;1.55;;;;;;;4.18;46.69;98802.31;5058347;28;20101;-37
2023/03/01 07:13:58;;;;;;;4.45;1.40;;;;;;;3.85;46.94;98798.75;5085298;28;20040;-36
2023/03/01 07:16:24;;;;;;;6.53;1.40;;;;;;;4.48;46.06;98769.88;5065261;28;20044;-35
2023/03/01 07:18:49;;;;;;;5.15;1.77;;;;;;;6.28;44.29;98797.50;5067157;28;20036;-34
2023/03/01 07:21:16;;;;;;;3.95;1.08;;;;;;;7.47;43.00;98807.25;5067329;28;20055;-36
2023/03/01 07:23:42;;;;;;;6.10;1.42;;;;;;;8.67;41.29;98808.69;5067053;28;20055;-35
2023/03/01 07:26:08;;;;;;;4.63;1.30;;;;;;;9.52;40.15;98817.19;5069329;28;20470;-35
2023/03/01 07:28:38;;;;;;;2.50;1.13;;;;;;;10.31;39.28;98785.00;5067413;28;20040;-35
2023/03/01 07:31:04;;;;;;;;;;;;;;;10.73;38.15;98827.09;5070158;28;20096;-34
2023/03/01 07:33:30;;;;;;;3.38;1.20;;;;;;;11.13;37.19;98831.19;5078331;28;19943;-35
2023/03/01 07:36:01;;;;;;;3.53;1.13;;;;;;;10.57;36.78;98828.78;5084012;28;20036;-35
2023/03/01 07:38:28;;;;;;;5.22;1.52;;;;;;;9.98;36.64;98793.44;5074112;28;20090;-35
2023/03/01 07:40:59;;;;;;;3.55;1.38;;;;;;;9.52;35.76;98828.41;5066301;28;20401;-33
2023/03/01 07:43:24;;;;;;;2.55;1.00;;;;;;;9.54;35.68;98825.72;5076510;28;20056;-35
2023/03/01 07:45:51;;;;;;;2.83;1.20;;;;;;;9.86;35.43;98834.69;5067010;28;20043;-35
2023/03/01 07:48:17;;;;;;;3.30;1.05;;;;;;;9.65;34.39;98813.13;5066310;28;20048;-35
2023/03/01 07:50:43;;;;;;;2.90;1.10;;;;;;;9.49;35.09;98832.88;5066914;28;20036;-35
2023/03/01 07:53:10;;;;;;;4.35;1.35;;;;;;;9.30;34.76;98799.94;5054010;28;20127;-35
2023/03/01 07:55:36;;;;;;;2.70;1.42;;;;;;;9.20;34.67;98836.72;5072919;28;20484;-36
2023/03/01 07:58:03;;;;;;;6.55;1.38;;;;;;;8.77;35.22;98830.72;5063518;28;20040;-35
2023/03/01 08:00:29;;;;;;;2.90;1.20;;;;;;;8.56;35.14;98830.72;5043168;28;20052;-34
2023/03/01 08:02:59;;;;;;;2.78;1.40;;;;;;;9.80;34.60;98835.78;5066338;28;20101;-36
2023/03/01 08:05:24;;;;;;;5.22;1.40;;;;;;;10.69;32.82;98830.78;5049373;28;20214;-34
2023/03/01 08:07:50;;;;;;;4.53;1.80;;;;;;;11.40;32.33;98822.00;5065530;28;20570;-35
2023/03/01 08:10:19;;;;;;;4.53;1.50;;;;;;;12.14;31.07;98813.78;5063688;28;20071;-42
2023/03/01 08:12:46;;;;;;;3.75;1.33;;;;;;;11.48;31.00;98796.41;5066614;28;20044;-35
2023/03/01 08:15:12;;;;;;;2.65;1.15;;;;;;;10.91;31.14;98826.22;5030243;28;20063;-35
2023/03/01 08:17:38;;;;;;;4.03;1.38;;;;;;;10.20;31.72;98801.91;5031983;28;20038;-33
2023/03/01 08:20:06;;;;;;;4.60;1.50;;;;;;;10.86;30.98;98801.34;5067985;28;20041;-34
2023/03/01 08:22:32;;;;;;;3.75;2.10;;;;;;;11.77;30.36;98794.91;5067493;28;20460;-35
2023/03/01 08:24:58;;;;;;;3.42;1.00;;;;;;;12.69;29.74;98833.22;5067499;28;20079;-35
2023/03/01 08:27:24;;;;;;;3.20;1.70;;;;;;;13.20;28.73;98802.47;5063116;28;20046;-36
2023/03/01 08:29:50;;;;;;;3.85;1.08;;;;;;;13.84;27.83;98830.78;5066873;28;21053;-35
2023/03/01 08:32:16;;;;;;;2.58;1.30;;;;;;;14.33;27.46;98846.06;5032886;28;20036;-36
2023/03/01 08:34:41;;;;;;;3.17;1.40;;;;;;;14.32;27.10;98850.44;5065191;28;20090;-34
2023/03/01 08:37:09;;;;;;;2.75;1.17;;;;;;;14.47;26.76;98846.03;5066663;28;20045;-36
2023/03/01 08:39:35;;;;;;;2.35;0.98;;;;;;;14.08;27.35;98851.94;5072074;28;20052;-35
2023/03/01 08:42:01;;;;;;;2.72;1.05;;;;;;;14.15;26.83;98850.66;5077493;28;20031;-36
2023/03/01 08:44:27;;;;;;;5.10;1.40;;;;;;;14.41;26.60;98843.81;5068049;28;20528;-35
2023/03/01 08:46:55;;;;;;;3.28;1.30;;;;;;;14.68;26.43;98833.38;5073777;28;20036;-35
2023/03/01 08:49:21;;;;;;;5.05;1.70;;;;;;;15.05;25.97;98861.44;5044912;28;20032;-35
2023/03/01 08:51:48;;;;;;;2.53;1.40;;;;;;;15.49;25.38;98852.41;5073034;28;20082;-36
2023/03/01 08:54:17;;;;;;;4.65;2.33;;;;;;;16.00;25.09;98853.28;5075134;28;20050;-40
2023/03/01 08:56:44;;;;;;;4.95;2.55;;;;;;;16.28;24.93;98858.25;5076333;28;20074;-35
2023/03/01 08:59:14;;;;;;;6.93;4.28;;;;;;;16.38;24.25;98859.25;5090703;28;20036;-36
2023/03/01 09:01:43;;;;;;;7.47;4.20;;;;;;;16.21;24.38;98848.31;5079988;28;20110;-36
2023/03/01 09:04:09;;;;;;;5.97;1.87;;;;;;;15.03;24.16;98863.31;5068654;28;20040;-36
2023/03/01 09:06:35;;;;;;;3.88;1.58;;;;;;;14.72;24.60;98861.00;5066830;28;20044;-35
2023/03/01 09:09:04;;;;;;;3.85;2.30;;;;;;;15.20;24.36;98854.34;5077192;28;20047;-35
2023/03/01 09:11:30;;;;;;;5.50;2.13;;;;;;;15.98;23.79;98861.22;5068059;28;20100;-36
2023/03/01 09:13:57;;;;;;;2.50;1.35;;;;;;;16.51;22.88;98860.09;5070049;28;20131;-35
2023/03/01 09:16:23;;;;;;;3.95;2.15;;;;;;;16.84;22.87;98851.59;5070150;28;20057;-34
2023/03/01 09:18:51;;;;;;;5.28;2.15;;;;;;;17.58;22.41;98846.94;5065509;28;20040;-36
2023/03/01 09:21:20;;;;;;;4.32;1.80;;;;;;;18.31;21.84;98854.41;5071047;28;20044;-35
2023/03/01 09:23:47;;;;;;;3.83;1.75;;;;;;;18.72;21.30;98859.03;5051811;28;20036;-35
2023/03/01 09:26:16;;;;;;;3.95;1.67;;;;;;;18.53;21.02;98862.25;5056069;28;20067;-35
2023/03/01 09:28:44;;;;;;;5.80;1.80;;;;;;;19.31;20.78;98857.56;5056800;28;20074;-35
2023/03/01 09:31:12;;;;;;;3.58;1.67;;;;;;;19.39;20.38;98857.78;5064939;28;20162;-38
2023/03/01 09:33:39;;;;;;;2.33;1.27;;;;;;;20.00;19.92;98859.69;5068203;28;20028;-34
2023/03/01 09:36:09;;;;;;;2.53;1.38;;;;;;;19.38;19.61;98837.66;5069741;28;20295;-36
2023/03/01 09:38:35;;;;;;;6.28;1.58;;;;;;;20.05;19.50;98834.56;5058653;28;20535;-35
2023/03/01 09:41:01;;;;;;;4.10;1.67;;;;;;;20.49;19.47;98851.84;5052358;28;20516;-36
2023/03/01 09:43:47;;;;;;;3.40;1.20;;;;;;;20.62;19.14;98855.06;5064174;28;20135;-36
2023/03/01 09:46:17;;;;;;;3.53;1.38;;;;;;;20.17;19.19;98851.97;5073283;28;20088;-36
2023/03/01 09:48:50;;;;;;;2.92;1.27;;;;;;;19.82;19.19;98833.09;5058463;28;20040;-36
2023/03/01 09:51:25;;;;;;;3.70;1.23;;;;;;;17.66;20.30;98857.72;5058770;28;20045;-36
2023/03/01 09:53:54;;;;;;;5.60;1.17;;;;;;;18.55;20.06;98847.22;5076409;28;20428;-40
2023/03/01 09:56:22;;;;;;;6.05;1.35;;;;;;;19.52;19.36;98849.72;5047311;28;20045;-48
2023/03/01 09:58:54;;;;;;;3.60;1.20;;;;;;;18.17;20.00;98866.84;5065892;28;20109;-47
2023/03/01 10:01:35;;;;;;;3.83;1.33;;;;;;;15.86;21.52;98858.66;5063941;28;20045;-46
2023/03/01 10:04:24;;;;;;;3.45;1.35;;;;;;;14.52;22.85;98850.97;5066902;28;20889;-45
2023/03/01 10:07:06;;;;;;;2.72;1.40;;;;;;;14.02;23.53;98854.97;5079431;28;20037;-44
2023/03/01 10:09:40;;;;;;;3.53;1.45;;;;;;;13.01;24.37;98865.31;5063244;28;20580;-45
2023/03/01 10:12:22;;;;;;;3.78;1.45;;;;;;;12.44;24.92;98847.72;5066505;28;20141;-45
2023/03/01 10:14:53;;;;;;;3.80;1.95;;;;;;;11.41;25.80;98839.28;5062272;28;20047;-42
2023/03/01 10:17:40;;;;;;;2.40;0.98;;;;;;;10.39;26.85;98843.47;5065681;28;20044;-42
2023/03/01 10:20:18;;;;;;;4.97;1.65;;;;;;;9.60;27.60;98846.22;5091078;28;20461;-43
2023/03/01 10:22:50;;;;;;;2.85;0.90;;;;;;;8.49;28.89;98867.22;5087948;28;20032;-43
2023/03/01 10:25:44;;;;;;;5.18;1.00;;;;;;;7.67;30.11;98864.28;5061801;28;20222;-45
2023/03/01 10:28:26;;;;;;;2.25;1.05;;;;;;;7.18;30.92;98863.38;5063095;28;20052;-46
2023/03/01 10:30:52;;;;;;;2.08;0.90;;;;;;;7.75;30.41;98861.41;5064348;28;20074;-42
2023/03/01 10:33:24;;;;;;;2.58;0.93;;;;;;;7.04;31.12;98815.66;5063544;28;20126;-44
2023/03/01 10:35:50;;;;;;;1.70;0.80;;;;;;;6.34;31.85;98817.94;5072617;28;20113;-43
2023/03/01 10:38:17;;;;;;;3.15;0.85;;;;;;;6.02;32.63;98865.34;5070766;28;20152;-42
2023/03/01 10:40:58;;;;;;;1.92;0.70;;;;;;;5.56;33.51;98855.47;5063875;28;20036;-44
2023/03/01 10:43:26;;;;;;;4.00;0.90;;;;;;;5.33;34.20;98850.94;5063433;28;20044;-42
2023/03/01 10:45:52;;;;;;;4.20;1.42;;;;;;;5.09;34.46;98838.69;5047346;28;20093;-44
2023/03/01 10:48:27;;;;;;;3.75;0.98;;;;;;;5.19;34.38;98859.91;5065283;28;20036;-43
2023/03/01 10:50:59;;;;;;;2.80;1.38;;;;;;;6.62;33.47;98866.97;5070120;28;20040;-44
2023/03/01 10:53:48;;;;;;;2.47;0.63;;;;;;;6.50;32.82;98860.44;5065120;28;20489;-44
2023/03/01 10:56:15;;;;;;;1.77;0.60;;;;;;;5.73;33.38;98866.16;5063501;28;20071;-41
2023/03/01 10:59:02;;;;;;;1.33;0.63;;;;;;;4.98;34.22;98867.28;5062731;28;20076;-44
2023/03/01 11:01:34;;;;;;;2.95;1.13;;;;;;;4.91;34.90;98870.06;5058991;28;20209;-41
2023/03/01 11:04:18;;;;;;;3.45;0.73;;;;;;;4.95;34.98;98866.53;5064195;28;20045;-43
2023/03/01 11:06:58;;;;;;;4.00;0.90;;;;;;;4.98;34.82;98864.72;5062801;28;20044;-42
2023/03/01 11:09:27;;;;;;;3.20;1.55;;;;;;;4.96;35.01;98839.91;5062657;28;20040;-44
2023/03/01 11:11:54;;;;;;;2.65;0.88;;;;;;;5.37;34.67;98859.44;5062007;28;20090;-44
2023/03/01 11:14:24;;;;;;;3.53;0.73;;;;;;;5.47;34.80;98855.72;5025135;28;20193;-47
2023/03/01 11:16:59;;;;;;;;;;;;;;;6.94;33.49;98851.28;5075344;28;20081;-37
2023/03/01 11:19:25;;;;;;;2.60;0.90;;;;;;;8.54;31.26;98853.25;5054692;28;19947;-36
2023/03/01 11:22:00;;;;;;;3.50;1.00;;;;;;;10.97;28.97;98866.69;5069433;28;20044;-36
2023/03/01 11:24:40;;;;;;;1.73;0.60;;;;;;;12.31;27.01;98865.78;5053765;28;20037;-35
2023/03/01 11:27:16;;;;;;;2.28;0.73;;;;;;;13.76;25.89;98859.16;5037162;28;20048;-35
2023/03/01 11:29:46;;;;;;;4.53;1.00;;;;;;;15.19;24.98;98863.13;5050914;28;20045;-36
2023/03/01 11:32:14;;;;;;;1.30;0.80;;;;;;;16.72;23.68;98865.59;5051709;28;20067;-35
2023/03/01 11:34:46;;;;;;;1.63;0.83;;;;;;;16.04;23.73;98859.97;5085387;28;20048;-37
2023/03/01 11:37:24;;;;;;;2.38;0.80;;;;;;;15.40;24.15;98874.81;5050552;28;20047;-36
2023/03/01 11:40:13;;;;;;;6.70;1.10;;;;;;;14.88;23.68;98871.31;5056993;28;20044;-36
2023/03/01 11:42:54;;;;;;;2.75;1.65;;;;;;;12.92;25.01;98875.44;5064027;28;20047;-38
2023/03/01 11:45:22;;;;;;;2.83;0.90;;;;;;;11.52;26.69;98869.13;5065586;28;20036;-36
2023/03/01 11:48:06;;;;;;;2.47;1.00;;;;;;;9.88;27.89;98877.84;5064060;28;20749;-36
2023/03/01 11:50:44;;;;;;;2.60;0.68;;;;;;;9.81;27.40;98878.16;5065855;28;20044;-35